Cedar Ridge, CA (95924)

1:00 PM PDT on April 19, 2015 (GMT -0700)
Peardale | | Change Station
CLOSE
Current Station
Personal Weather Station
Location: Grass Valley, CA
Elevation: 2677 ft
Nearby Weather Stations

Elev 2677 ft 39.19 °N, 121.00 °W | Updated 5 seconds ago

Clear
Clear
77.2 °F
Feels Like 78 °F
N
0.0
Wind Variable Wind from ESE
Gusts 5.0 mph

Today
High -- | Low -- °F
--% Chance of Precip.
Yesterday
High -- | Low -- °F
Precip. -- in
6:21 AM 7:45 PM
New Moon, 2% visible
Pressure 29.97 in
Visibility 10.0 miles
Clouds Clear
Heat Index 78 °F
Dew Point 45 °F
Humidity 32%
Rainfall 0.00 in
Snow Depth Not available.
UV 11 out of 12
Pollen 9.50 out of 12
Air Quality Not available.
Flu Activity Sporadic
METAR KGOO 192000Z AUTO 28007KT 10SM CLR 24/04 A2997 RMK AO1

More Conditions Fewer Conditions

Pressure 29.97 in
Visibility 10.0 miles
Clouds Clear
Heat Index 78 °F
Dew Point 45 °F
Humidity 32%
Rainfall 0.00 in
Snow Depth Not available.
UV 11 out of 12
Pollen 9.50 out of 12
Air Quality Not available.
Flu Activity Sporadic
METAR KGOO 192000Z AUTO 28007KT 10SM CLR 24/04 A2997 RMK AO1

More Conditions Fewer Conditions

10-Day Weather Forecast

Almanac

Astronomy

Apr. 19, 2015 Rise Set
Actual Time
Civil Twilight
Nautical Twilight
Astronomical Twilight
Moon
Length of Visible Light
Length of Day
Tomorrow will be .
, % of the Moon is Illuminated

Today's Extremes

State Highs State Lows

Community

WunderPhotos

Upload Photos

1,814,956 photos uploaded!

WunderBlogs® & News

Nearby

Air Quality

  Air Quality AQ Index Pollutant
Not available.

Snow Depth

Station Depth Elevation

Earthquake Activity

City Distance Mag. Time & Date
Minimum magnitude displayed is 2.5.

Coastal Water Temperatures

Place Temperature

Stations

Nearby Weather Stations

Station Location Temp. Windchill Dew Point Humidity Wind Precip. Elev Updated Type